createdAt,value
2023-01-26T00:00:10.917Z,41.89
2023-01-26T00:01:10.555Z,51.40
2023-01-26T00:02:10.538Z,39.48
2023-01-26T00:03:10.530Z,37.87
2023-01-26T00:04:10.620Z,40.12
2023-01-26T00:05:10.532Z,48.98
2023-01-26T00:06:10.509Z,42.54
2023-01-26T00:07:10.503Z,37.87
2023-01-26T00:08:10.574Z,41.25
2023-01-26T00:09:10.488Z,45.28
2023-01-26T00:10:10.819Z,41.89
2023-01-26T00:11:10.480Z,39.96
2023-01-26T00:12:10.487Z,43.02
2023-01-26T00:13:10.469Z,46.73
2023-01-26T00:14:10.479Z,42.38
2023-01-26T00:15:10.453Z,48.50
2023-01-26T00:16:10.505Z,45.92
2023-01-26T00:17:10.443Z,45.92
2023-01-26T00:18:10.440Z,43.67
2023-01-26T00:19:10.436Z,45.76
2023-01-26T00:20:10.738Z,49.31
2023-01-26T00:21:10.398Z,51.24
2023-01-26T00:22:12.832Z,49.95
2023-01-26T00:23:10.381Z,46.89
2023-01-26T00:24:10.399Z,37.71
2023-01-26T00:27:10.041Z,37.38
2023-01-26T00:28:10.035Z,44.63
2023-01-26T00:29:10.022Z,37.71
2023-01-26T00:30:10.405Z,47.05
2023-01-26T00:31:10.053Z,37.06
2023-01-26T00:32:10.001Z,36.74
2023-01-26T00:33:10.011Z,37.38
2023-01-26T00:34:09.986Z,43.02
2023-01-26T00:35:09.974Z,41.25
2023-01-26T00:36:09.978Z,41.41
2023-01-26T00:37:09.989Z,36.58
2023-01-26T00:38:09.949Z,36.74
2023-01-26T00:39:09.944Z,36.25
2023-01-26T00:40:10.327Z,35.93
2023-01-26T00:41:09.944Z,35.93
2023-01-26T00:42:11.039Z,36.42
2023-01-26T00:43:11.013Z,39.16
2023-01-26T00:44:10.994Z,36.58
2023-01-26T00:45:10.992Z,36.09
2023-01-26T00:46:10.990Z,41.25
2023-01-26T00:47:10.977Z,44.15
2023-01-26T00:48:10.963Z,41.57
2023-01-26T00:49:11.959Z,37.38
2023-01-26T00:50:11.634Z,38.03
2023-01-26T00:51:10.952Z,38.99
2023-01-26T00:52:10.950Z,36.25
2023-01-26T00:53:10.934Z,36.42
2023-01-26T00:54:10.926Z,37.71
2023-01-26T00:55:10.927Z,37.71
2023-01-26T00:56:10.906Z,39.64
2023-01-26T00:57:10.903Z,38.35
2023-01-26T00:58:10.898Z,36.42
2023-01-26T00:59:10.895Z,48.50
2023-01-26T01:00:11.164Z,43.51
2023-01-26T01:01:10.877Z,43.02
2023-01-26T01:02:10.926Z,42.06
2023-01-26T01:03:10.876Z,38.19
2023-01-26T01:04:10.843Z,40.28
2023-01-26T01:05:10.852Z,37.22
2023-01-26T01:06:10.839Z,36.09
2023-01-26T01:07:10.821Z,36.42
2023-01-26T01:08:11.408Z,35.93
2023-01-26T01:09:10.820Z,40.77
2023-01-26T01:10:11.040Z,49.79
2023-01-26T01:11:10.815Z,48.02
2023-01-26T01:12:10.780Z,38.03
2023-01-26T01:13:10.779Z,37.22
2023-01-26T01:14:10.766Z,41.25
2023-01-26T01:15:10.772Z,45.92
2023-01-26T01:16:10.827Z,46.25
2023-01-26T01:17:10.751Z,37.06
2023-01-26T01:18:10.741Z,36.74
2023-01-26T01:19:10.726Z,36.58
2023-01-26T01:20:11.114Z,36.58
2023-01-26T01:21:10.717Z,36.90
2023-01-26T01:22:10.718Z,37.22
2023-01-26T01:23:10.701Z,38.51
2023-01-26T01:24:10.718Z,38.03
2023-01-26T01:25:10.694Z,37.06
2023-01-26T01:26:10.699Z,36.09
2023-01-26T01:27:11.413Z,44.63
2023-01-26T01:28:10.655Z,37.71
2023-01-26T01:29:10.644Z,36.25
2023-01-26T01:30:11.093Z,36.58
2023-01-26T01:31:10.709Z,37.06
2023-01-26T01:32:10.625Z,36.25
2023-01-26T01:33:11.414Z,37.38
2023-01-26T01:34:10.604Z,36.58
2023-01-26T01:35:10.608Z,36.25
2023-01-26T01:36:10.588Z,39.16
2023-01-26T01:37:10.596Z,37.87
2023-01-26T01:38:10.574Z,56.40
2023-01-26T01:39:10.569Z,39.16
2023-01-26T01:40:10.892Z,36.25
2023-01-26T01:41:10.549Z,36.25
2023-01-26T01:42:10.544Z,37.54
2023-01-26T01:43:10.533Z,40.12
2023-01-26T01:44:10.525Z,36.42
2023-01-26T01:45:10.541Z,39.32
2023-01-26T01:46:10.519Z,42.06
2023-01-26T01:47:10.506Z,54.62
2023-01-26T01:48:10.497Z,52.37
2023-01-26T01:49:10.487Z,43.34
2023-01-26T01:50:10.852Z,50.11
2023-01-26T01:51:10.474Z,40.77
2023-01-26T01:52:10.471Z,39.16
2023-01-26T01:53:10.466Z,40.28
2023-01-26T01:54:10.448Z,54.14
2023-01-26T01:55:10.436Z,37.22
2023-01-26T01:56:10.438Z,36.25
2023-01-26T01:57:10.429Z,38.19
2023-01-26T01:58:10.416Z,46.25
2023-01-26T01:59:10.404Z,43.51
2023-01-26T02:00:10.807Z,44.63
2023-01-26T02:01:10.458Z,38.19
2023-01-26T02:02:10.425Z,41.57
2023-01-26T02:03:10.378Z,41.57
2023-01-26T02:04:10.373Z,38.03
2023-01-26T02:05:10.360Z,39.32
2023-01-26T02:06:10.353Z,44.47
2023-01-26T02:07:10.352Z,45.76
2023-01-26T02:08:10.337Z,44.47
2023-01-26T02:09:10.332Z,36.25
2023-01-26T02:10:10.617Z,35.93
2023-01-26T02:11:10.327Z,39.64
2023-01-26T02:12:10.342Z,37.06
2023-01-26T02:13:10.308Z,36.09
2023-01-26T02:14:10.298Z,46.89
2023-01-26T02:15:10.285Z,38.03
2023-01-26T02:16:10.303Z,38.51
2023-01-26T02:17:10.272Z,45.76
2023-01-26T02:18:10.280Z,36.42
2023-01-26T02:19:10.352Z,36.25
2023-01-26T02:20:10.663Z,41.09
2023-01-26T02:21:10.253Z,37.71
2023-01-26T02:22:10.236Z,51.24
2023-01-26T02:23:10.228Z,38.51
2023-01-26T02:24:10.297Z,35.93
2023-01-26T02:25:10.217Z,36.25
2023-01-26T02:26:10.204Z,43.67
2023-01-26T02:27:10.195Z,37.71
2023-01-26T02:28:10.193Z,52.21
2023-01-26T02:29:10.193Z,47.21
2023-01-26T02:30:10.437Z,38.99
2023-01-26T02:31:10.258Z,37.06
2023-01-26T02:32:10.179Z,37.22
2023-01-26T02:33:10.151Z,37.71
2023-01-26T02:34:10.141Z,38.51
2023-01-26T02:35:10.198Z,43.67
2023-01-26T02:36:10.125Z,46.41
2023-01-26T02:37:10.127Z,43.18
2023-01-26T02:38:10.108Z,38.99
2023-01-26T02:39:10.114Z,38.03
2023-01-26T02:40:10.563Z,37.71
2023-01-26T02:41:10.107Z,37.22
2023-01-26T02:42:10.083Z,37.38
2023-01-26T02:43:10.075Z,37.06
2023-01-26T02:44:10.077Z,35.77
2023-01-26T02:45:10.087Z,36.74
2023-01-26T02:46:10.064Z,37.71
2023-01-26T02:47:10.039Z,40.61
2023-01-26T02:48:10.047Z,36.74
2023-01-26T02:49:10.049Z,39.80
2023-01-26T02:50:10.475Z,37.38
2023-01-26T02:51:10.013Z,37.22
2023-01-26T02:52:10.013Z,37.22
2023-01-26T02:53:09.996Z,40.77
2023-01-26T02:54:09.980Z,38.67
2023-01-26T02:55:10.985Z,36.90
2023-01-26T02:56:09.975Z,47.86
2023-01-26T02:57:09.973Z,40.93
2023-01-26T02:58:09.959Z,40.28
2023-01-26T02:59:09.966Z,41.25
2023-01-26T03:00:10.165Z,39.80
2023-01-26T03:01:09.966Z,38.19
2023-01-26T03:02:09.975Z,47.37
2023-01-26T03:03:09.930Z,46.57
2023-01-26T03:04:09.928Z,57.69
2023-01-26T03:05:09.905Z,49.47
2023-01-26T03:06:09.889Z,44.15
2023-01-26T03:07:09.878Z,38.03
2023-01-26T03:08:09.877Z,36.90
2023-01-26T03:09:09.900Z,38.03
2023-01-26T03:10:10.157Z,43.67
2023-01-26T03:11:09.866Z,42.22
2023-01-26T03:12:09.882Z,37.87
2023-01-26T03:13:09.842Z,40.61
2023-01-26T03:14:09.844Z,38.51
2023-01-26T03:15:09.829Z,44.15
2023-01-26T03:16:09.868Z,40.28
2023-01-26T03:17:09.817Z,46.73
2023-01-26T03:18:09.797Z,50.27
2023-01-26T03:19:09.825Z,38.03
2023-01-26T03:20:09.986Z,41.41
2023-01-26T03:21:09.785Z,41.57
2023-01-26T03:22:09.761Z,48.66
2023-01-26T03:23:09.753Z,51.08
2023-01-26T03:24:09.850Z,44.96
2023-01-26T03:25:09.750Z,56.72
2023-01-26T03:26:09.737Z,50.60
2023-01-26T03:27:09.728Z,50.92
2023-01-26T03:28:09.714Z,38.83
2023-01-26T03:29:09.718Z,38.03
2023-01-26T03:30:10.069Z,49.31
2023-01-26T03:31:09.742Z,49.79
2023-01-26T03:32:09.731Z,41.41
2023-01-26T03:33:09.676Z,41.57
2023-01-26T03:34:09.669Z,38.99
2023-01-26T03:35:09.702Z,37.22
2023-01-26T03:36:09.649Z,49.63
2023-01-26T03:37:09.642Z,39.16
2023-01-26T03:38:09.655Z,38.03
2023-01-26T03:39:09.626Z,38.19
2023-01-26T03:40:10.186Z,38.19
2023-01-26T03:41:09.612Z,43.99
2023-01-26T03:42:09.614Z,43.18
2023-01-26T03:43:09.604Z,42.54
2023-01-26T03:44:09.640Z,41.41
2023-01-26T03:45:09.588Z,49.47
2023-01-26T03:46:09.584Z,39.64
2023-01-26T03:47:09.563Z,39.80
2023-01-26T03:48:09.601Z,45.76
2023-01-26T03:49:09.544Z,42.54
2023-01-26T03:50:09.938Z,49.63
2023-01-26T03:51:09.550Z,45.44
2023-01-26T03:52:09.528Z,51.40
2023-01-26T03:53:09.524Z,55.75
2023-01-26T03:54:09.511Z,58.17
2023-01-26T03:55:09.517Z,57.85
2023-01-26T03:56:09.494Z,59.78
2023-01-26T03:57:09.500Z,45.12
2023-01-26T03:58:10.493Z,45.76
2023-01-26T03:59:09.492Z,56.24
2023-01-26T04:00:09.899Z,47.21
2023-01-26T04:01:09.476Z,43.67
2023-01-26T04:02:09.478Z,54.14
2023-01-26T04:03:09.433Z,53.66
2023-01-26T04:04:09.452Z,52.05
2023-01-26T04:05:09.435Z,44.63
2023-01-26T04:06:16.019Z,44.96
2023-01-26T04:07:10.411Z,51.08
2023-01-26T04:08:09.403Z,45.28
2023-01-26T04:09:09.392Z,40.12
2023-01-26T04:10:09.638Z,58.01
2023-01-26T04:11:09.383Z,55.43
2023-01-26T04:12:09.367Z,60.59
2023-01-26T04:13:09.359Z,47.53
2023-01-26T04:14:10.954Z,54.14
2023-01-26T04:15:09.401Z,57.36
2023-01-26T04:16:09.441Z,42.54
2023-01-26T04:17:09.328Z,54.79
2023-01-26T04:18:09.323Z,52.53
2023-01-26T04:19:09.323Z,49.15
2023-01-26T04:20:09.741Z,56.40
2023-01-26T04:21:09.306Z,59.14
2023-01-26T04:22:09.287Z,54.30
2023-01-26T04:23:09.282Z,54.30
2023-01-26T04:24:09.328Z,52.05
2023-01-26T04:25:12.981Z,57.36
2023-01-26T04:26:09.279Z,55.43
2023-01-26T04:27:09.250Z,53.66
2023-01-26T04:28:09.269Z,52.21
2023-01-26T04:29:09.238Z,51.08
2023-01-26T04:30:09.541Z,51.88
2023-01-26T04:31:09.222Z,57.20
2023-01-26T04:32:11.962Z,57.36
2023-01-26T04:33:09.205Z,57.69
2023-01-26T04:34:16.946Z,53.17
2023-01-26T04:35:09.183Z,60.59
2023-01-26T04:36:09.178Z,61.55
2023-01-26T04:37:10.190Z,57.36
2023-01-26T04:38:09.176Z,60.10
2023-01-26T04:40:56.032Z,56.88
2023-01-26T04:41:57.113Z,56.72
2023-01-26T04:42:57.109Z,61.23
2023-01-26T04:43:57.096Z,53.98
2023-01-26T04:44:57.100Z,41.41
2023-01-26T04:45:57.163Z,56.07
2023-01-26T04:46:57.086Z,61.07
2023-01-26T04:47:57.070Z,54.14
2023-01-26T04:48:57.060Z,56.88
2023-01-26T04:49:57.067Z,46.73
2023-01-26T04:50:57.063Z,58.33
2023-01-26T04:51:57.049Z,61.39
2023-01-26T04:52:57.031Z,54.95
2023-01-26T04:53:57.029Z,54.14
2023-01-26T04:54:57.020Z,54.46
2023-01-26T04:55:57.016Z,55.27
2023-01-26T04:56:57.000Z,56.40
2023-01-26T04:57:56.998Z,59.46
2023-01-26T04:58:56.995Z,59.94
2023-01-26T04:59:56.975Z,59.62
2023-01-26T05:00:57.976Z,58.01
2023-01-26T05:01:56.964Z,54.79
2023-01-26T05:02:56.975Z,49.79
2023-01-26T05:03:56.979Z,55.11
2023-01-26T05:04:56.989Z,60.91
2023-01-26T05:05:56.942Z,60.59
2023-01-26T05:06:56.935Z,55.27
2023-01-26T05:07:56.917Z,56.72
2023-01-26T05:08:56.942Z,57.52
2023-01-26T05:09:57.899Z,56.40
2023-01-26T05:10:56.891Z,58.97
2023-01-26T05:11:56.890Z,57.52
2023-01-26T05:12:56.870Z,58.17
2023-01-26T05:13:56.868Z,58.97
2023-01-26T05:14:56.861Z,53.17
2023-01-26T05:15:56.893Z,51.88
2023-01-26T05:16:56.854Z,53.17
2023-01-26T05:17:56.842Z,51.72
2023-01-26T05:18:57.817Z,55.43
2023-01-26T05:19:56.872Z,61.07
2023-01-26T05:20:56.856Z,57.36
2023-01-26T05:21:56.808Z,55.91
2023-01-26T05:22:56.826Z,60.59
2023-01-26T05:23:56.816Z,57.69
2023-01-26T05:24:56.814Z,57.52
2023-01-26T05:25:56.812Z,58.49
2023-01-26T05:26:56.781Z,63.49
2023-01-26T05:27:56.874Z,58.81
2023-01-26T05:28:56.749Z,64.13
2023-01-26T05:29:57.404Z,57.36
2023-01-26T05:30:56.811Z,59.78
2023-01-26T05:31:56.739Z,60.75
2023-01-26T05:32:56.724Z,58.97
2023-01-26T05:33:56.701Z,59.14
2023-01-26T05:34:56.712Z,61.07
2023-01-26T05:35:56.704Z,61.71
2023-01-26T05:36:56.692Z,61.07
2023-01-26T05:37:56.687Z,60.10
2023-01-26T05:38:56.661Z,60.42
2023-01-26T05:39:56.662Z,56.40
2023-01-26T05:40:56.663Z,61.07
2023-01-26T05:41:56.643Z,59.14
2023-01-26T05:42:56.645Z,61.23
2023-01-26T05:43:56.644Z,62.84
2023-01-26T05:44:56.623Z,54.30
2023-01-26T05:45:56.649Z,58.17
2023-01-26T05:46:56.612Z,60.26
2023-01-26T05:47:56.597Z,59.14
2023-01-26T05:48:56.588Z,60.59
2023-01-26T05:49:57.402Z,61.39
2023-01-26T05:50:56.587Z,63.00
2023-01-26T05:51:56.598Z,51.88
2023-01-26T05:52:56.556Z,56.40
2023-01-26T05:53:56.552Z,62.84
2023-01-26T05:54:56.564Z,61.39
2023-01-26T05:55:56.550Z,63.00
2023-01-26T05:56:56.678Z,59.14
2023-01-26T05:57:56.581Z,57.04
2023-01-26T05:58:56.515Z,58.01
2023-01-26T05:59:58.475Z,56.72
2023-01-26T06:00:56.498Z,61.07
2023-01-26T06:01:56.527Z,61.71
2023-01-26T06:02:56.514Z,60.59
2023-01-26T06:03:56.477Z,65.42
2023-01-26T06:04:56.470Z,61.55
2023-01-26T06:05:56.469Z,60.59
2023-01-26T06:06:56.447Z,62.84
2023-01-26T06:07:56.437Z,55.91
2023-01-26T06:08:56.428Z,59.78
2023-01-26T06:09:56.446Z,61.87
2023-01-26T06:10:56.424Z,58.17
2023-01-26T06:11:56.423Z,59.62
2023-01-26T06:12:56.400Z,62.36
2023-01-26T06:13:56.393Z,62.68
2023-01-26T06:14:56.395Z,59.62
2023-01-26T06:15:56.382Z,63.00
2023-01-26T06:16:57.034Z,63.33
2023-01-26T06:17:56.367Z,56.24
2023-01-26T06:18:56.356Z,61.55
2023-01-26T06:19:56.354Z,66.39
2023-01-26T06:20:56.334Z,64.45
2023-01-26T06:21:56.326Z,62.04
2023-01-26T06:22:56.328Z,61.23
2023-01-26T06:23:56.345Z,64.29
2023-01-26T06:24:56.908Z,66.06
2023-01-26T06:25:56.292Z,62.36
2023-01-26T06:26:56.286Z,64.29
2023-01-26T06:27:56.282Z,65.10
2023-01-26T06:28:56.276Z,64.13
2023-01-26T06:29:56.261Z,62.36
2023-01-26T06:30:56.283Z,62.68
2023-01-26T06:31:57.246Z,63.65
2023-01-26T06:32:58.201Z,63.65
2023-01-26T06:33:56.234Z,62.68
2023-01-26T06:34:56.220Z,62.52
2023-01-26T06:35:56.234Z,62.68
2023-01-26T06:36:56.212Z,65.26
2023-01-26T06:37:57.927Z,64.13
2023-01-26T06:38:57.173Z,61.87
2023-01-26T06:39:57.185Z,63.97
2023-01-26T06:40:56.183Z,63.65
2023-01-26T06:41:56.170Z,63.00
2023-01-26T06:42:56.164Z,65.10
2023-01-26T06:43:56.148Z,64.94
2023-01-26T06:44:56.145Z,61.71
2023-01-26T06:45:56.151Z,60.75
2023-01-26T06:46:56.124Z,62.52
2023-01-26T06:47:56.117Z,63.16
2023-01-26T06:48:56.134Z,61.07
2023-01-26T06:49:56.105Z,61.23
2023-01-26T06:50:56.120Z,63.16
2023-01-26T06:51:56.087Z,61.87
2023-01-26T06:52:56.107Z,62.52
2023-01-26T06:53:56.071Z,59.46
2023-01-26T06:54:56.066Z,61.23
2023-01-26T06:55:56.059Z,64.94
2023-01-26T06:56:56.056Z,62.04
2023-01-26T06:57:56.041Z,57.69
2023-01-26T06:58:56.032Z,60.10
2023-01-26T06:59:56.028Z,59.30
2023-01-26T07:00:56.068Z,63.97
2023-01-26T07:01:56.022Z,65.58
2023-01-26T07:02:56.014Z,62.04
2023-01-26T07:03:55.984Z,61.07
2023-01-26T07:04:56.992Z,64.45
2023-01-26T07:05:55.979Z,60.59
2023-01-26T07:06:55.999Z,59.30
2023-01-26T07:07:55.985Z,65.58
2023-01-26T07:08:55.953Z,63.33
2023-01-26T07:09:55.952Z,60.10
2023-01-26T07:10:55.939Z,60.26
2023-01-26T07:11:55.942Z,60.10
2023-01-26T07:12:55.927Z,58.01
2023-01-26T07:13:55.914Z,62.04
2023-01-26T07:14:55.909Z,65.10
2023-01-26T07:15:55.899Z,63.49
2023-01-26T07:16:56.496Z,69.13
2023-01-26T07:17:55.884Z,67.68
2023-01-26T07:18:55.888Z,67.35
2023-01-26T07:19:55.864Z,68.16
2023-01-26T07:20:55.857Z,65.74
2023-01-26T07:21:55.884Z,61.55
2023-01-26T07:22:55.849Z,62.52
2023-01-26T07:23:55.961Z,59.62
2023-01-26T07:24:55.834Z,62.04
2023-01-26T07:25:55.848Z,64.78
2023-01-26T07:26:56.823Z,61.55
2023-01-26T07:27:55.809Z,55.91
2023-01-26T07:28:55.806Z,57.69
2023-01-26T07:29:55.803Z,62.84
2023-01-26T07:30:55.820Z,63.33
2023-01-26T07:31:55.832Z,61.07
2023-01-26T07:32:55.774Z,59.78
2023-01-26T07:33:55.760Z,58.49
2023-01-26T07:34:55.779Z,61.39
2023-01-26T07:35:55.746Z,63.00
2023-01-26T07:36:55.743Z,60.91
2023-01-26T07:37:55.737Z,62.68
2023-01-26T07:38:55.721Z,63.33
2023-01-26T07:39:55.728Z,62.20
2023-01-26T07:40:55.715Z,59.94
2023-01-26T07:44:02.158Z,61.55
2023-01-26T07:45:03.081Z,63.49
2023-01-26T07:46:03.070Z,59.46
2023-01-26T07:47:03.074Z,60.26
2023-01-26T07:48:03.056Z,63.16
2023-01-26T07:49:03.044Z,61.39
2023-01-26T07:50:03.092Z,63.65
2023-01-26T07:51:03.024Z,61.87
2023-01-26T07:52:04.763Z,63.65
2023-01-26T07:53:04.012Z,62.52
2023-01-26T07:54:03.018Z,65.42
2023-01-26T07:55:03.007Z,60.10
2023-01-26T07:56:03.029Z,63.49
2023-01-26T07:57:02.995Z,58.97
2023-01-26T07:58:03.008Z,62.20
2023-01-26T07:59:03.975Z,60.75
2023-01-26T08:00:03.994Z,59.30
2023-01-26T08:01:02.954Z,61.55
2023-01-26T08:02:03.009Z,63.00
2023-01-26T08:03:03.009Z,62.36
2023-01-26T08:04:02.928Z,67.51
2023-01-26T08:05:02.969Z,60.42
2023-01-26T08:06:02.917Z,59.62
2023-01-26T08:07:02.912Z,63.33
2023-01-26T08:08:02.922Z,61.23
2023-01-26T08:09:02.890Z,60.75
2023-01-26T08:10:02.952Z,61.39
2023-01-26T08:11:02.919Z,60.91
2023-01-26T08:12:02.876Z,59.30
2023-01-26T08:13:02.861Z,62.20
2023-01-26T08:14:02.863Z,62.84
2023-01-26T08:15:03.558Z,59.94
2023-01-26T08:16:02.842Z,58.17
2023-01-26T08:17:02.849Z,60.91
2023-01-26T08:18:02.833Z,61.55
2023-01-26T08:19:02.826Z,62.52
2023-01-26T08:20:02.817Z,63.49
2023-01-26T08:21:02.809Z,65.90
2023-01-26T08:22:02.801Z,62.52
2023-01-26T08:23:02.797Z,59.62
2023-01-26T08:24:02.804Z,64.13
2023-01-26T08:25:02.797Z,61.07
2023-01-26T08:26:02.801Z,62.20
2023-01-26T08:27:02.797Z,60.75
2023-01-26T08:28:02.745Z,58.81
2023-01-26T08:29:02.737Z,61.39
2023-01-26T08:30:03.867Z,62.84
2023-01-26T08:31:02.758Z,61.71
2023-01-26T08:32:02.763Z,61.87
2023-01-26T08:33:02.836Z,64.45
2023-01-26T08:34:02.709Z,60.75
2023-01-26T08:35:02.695Z,60.59
2023-01-26T08:36:02.685Z,62.04
2023-01-26T08:37:02.673Z,64.45
2023-01-26T08:38:02.680Z,63.33
2023-01-26T08:39:02.681Z,62.68
2023-01-26T08:40:02.664Z,62.36
2023-01-26T08:41:02.651Z,63.97
2023-01-26T08:42:02.642Z,62.68
2023-01-26T08:43:02.810Z,61.71
2023-01-26T08:44:02.620Z,63.97
2023-01-26T08:45:04.361Z,60.26
2023-01-26T08:46:02.644Z,63.49
2023-01-26T08:47:02.665Z,66.06
2023-01-26T08:48:02.619Z,61.55
2023-01-26T08:49:02.585Z,62.84
2023-01-26T08:50:02.586Z,62.68
2023-01-26T08:51:02.606Z,61.39
2023-01-26T08:52:02.554Z,63.33
2023-01-26T08:53:02.586Z,65.10
2023-01-26T08:54:02.547Z,64.29
2023-01-26T08:55:02.558Z,64.45
2023-01-26T08:56:02.547Z,63.00
2023-01-26T08:57:02.522Z,61.55
2023-01-26T08:58:02.522Z,64.61
2023-01-26T08:59:03.469Z,64.61
2023-01-26T09:00:02.491Z,61.23
2023-01-26T09:01:02.516Z,62.84
2023-01-26T09:02:02.668Z,60.42
2023-01-26T09:03:02.845Z,64.61
2023-01-26T09:04:02.469Z,67.19
2023-01-26T09:05:02.476Z,69.61
2023-01-26T09:06:02.453Z,65.10
2023-01-26T09:07:02.483Z,61.07
2023-01-26T09:08:02.456Z,59.62
2023-01-26T09:09:02.440Z,60.59
2023-01-26T09:10:02.430Z,61.55
2023-01-26T09:11:02.418Z,63.33
2023-01-26T09:12:02.425Z,61.07
2023-01-26T09:13:02.503Z,63.00
2023-01-26T09:14:02.392Z,61.23
2023-01-26T09:15:02.383Z,58.81
2023-01-26T09:16:02.394Z,63.16
2023-01-26T09:17:02.380Z,61.39
2023-01-26T09:18:02.366Z,58.97
2023-01-26T09:19:02.384Z,62.52
2023-01-26T09:20:03.418Z,64.13
2023-01-26T09:21:02.379Z,63.81
2023-01-26T09:22:02.332Z,61.87
2023-01-26T09:23:02.413Z,64.78
2023-01-26T09:24:02.379Z,62.04
2023-01-26T09:25:02.323Z,63.65
2023-01-26T09:26:02.322Z,65.42
2023-01-26T09:27:02.300Z,64.61
2023-01-26T09:28:04.596Z,63.00
2023-01-26T09:29:02.302Z,65.58
2023-01-26T09:30:02.331Z,61.55
2023-01-26T09:31:02.352Z,61.71
2023-01-26T09:32:02.253Z,65.26
2023-01-26T09:33:02.272Z,63.97
2023-01-26T09:34:02.238Z,59.78
2023-01-26T09:35:02.942Z,64.45
2023-01-26T09:36:02.219Z,62.04
2023-01-26T09:37:02.208Z,62.04
2023-01-26T09:38:02.210Z,62.84
2023-01-26T09:39:02.248Z,61.71
2023-01-26T09:40:02.195Z,60.75
2023-01-26T09:41:02.202Z,61.71
2023-01-26T09:42:02.941Z,58.17
2023-01-26T09:43:02.162Z,64.13
2023-01-26T09:44:02.151Z,63.16
2023-01-26T09:45:02.160Z,61.07
2023-01-26T09:46:03.012Z,60.59
2023-01-26T09:47:02.150Z,61.55
2023-01-26T09:48:02.147Z,62.52
2023-01-26T09:49:02.125Z,59.30
2023-01-26T09:50:02.144Z,62.04
2023-01-26T09:51:02.114Z,60.26
2023-01-26T09:52:02.088Z,58.49
2023-01-26T09:53:02.084Z,64.45
2023-01-26T09:54:02.074Z,62.68
2023-01-26T09:55:02.089Z,63.81
2023-01-26T09:56:02.067Z,60.10
2023-01-26T09:57:02.056Z,61.55
2023-01-26T09:58:02.074Z,64.45
2023-01-26T09:59:02.067Z,62.20
2023-01-26T10:00:02.883Z,64.94
2023-01-26T10:01:02.079Z,61.87
2023-01-26T10:02:02.010Z,64.13
2023-01-26T10:03:02.186Z,61.23
2023-01-26T10:04:02.009Z,63.97
2023-01-26T10:05:01.986Z,62.84
2023-01-26T10:06:01.982Z,63.00
2023-01-26T10:07:01.991Z,62.68
2023-01-26T10:08:02.880Z,61.23
2023-01-26T10:09:01.964Z,61.23
2023-01-26T10:10:01.948Z,62.20
2023-01-26T10:11:01.939Z,60.75
2023-01-26T10:12:01.950Z,62.68
2023-01-26T10:13:01.926Z,58.49
2023-01-26T10:14:01.917Z,59.78
2023-01-26T10:15:01.909Z,59.78
2023-01-26T10:16:01.927Z,61.87
2023-01-26T10:17:01.894Z,62.20
2023-01-26T10:18:01.881Z,64.29
2023-01-26T10:19:01.882Z,65.42
2023-01-26T10:20:03.462Z,66.39
2023-01-26T10:21:01.862Z,61.55
2023-01-26T10:22:01.863Z,63.33
2023-01-26T10:23:01.847Z,60.91
2023-01-26T10:24:01.896Z,56.72
2023-01-26T10:25:01.835Z,64.61
2023-01-26T10:26:01.819Z,65.26
2023-01-26T10:27:01.811Z,61.71
2023-01-26T10:28:01.803Z,62.20
2023-01-26T10:29:01.812Z,62.52
2023-01-26T10:30:01.798Z,64.78
2023-01-26T10:31:01.833Z,62.84
2023-01-26T10:32:01.828Z,58.97
2023-01-26T10:33:01.782Z,63.00
2023-01-26T10:34:01.770Z,63.49
2023-01-26T10:35:01.761Z,62.52
2023-01-26T10:36:01.753Z,63.16
2023-01-26T10:39:07.798Z,62.52
2023-01-26T10:40:07.818Z,61.55
2023-01-26T10:41:07.764Z,60.91
2023-01-26T10:42:07.759Z,61.71
2023-01-26T10:43:07.748Z,62.84
2023-01-26T10:44:08.829Z,63.33
2023-01-26T10:45:08.853Z,60.91
2023-01-26T10:46:08.838Z,63.81
2023-01-26T10:47:08.803Z,61.71
2023-01-26T10:48:08.803Z,63.65
2023-01-26T10:49:08.803Z,60.75
2023-01-26T10:50:08.803Z,62.20
2023-01-26T10:51:08.781Z,61.71
2023-01-26T10:52:08.829Z,58.01
2023-01-26T10:53:08.771Z,62.20
2023-01-26T10:54:08.761Z,60.59
2023-01-26T10:55:09.054Z,61.55
2023-01-26T10:56:08.745Z,60.59
2023-01-26T10:57:08.762Z,62.36
2023-01-26T10:58:08.733Z,62.52
2023-01-26T10:59:08.729Z,64.61
2023-01-26T11:00:08.713Z,60.42
2023-01-26T11:01:08.695Z,63.81
2023-01-26T11:02:08.725Z,63.81
2023-01-26T11:03:08.718Z,65.10
2023-01-26T11:04:08.677Z,64.13
2023-01-26T11:05:08.729Z,64.29
2023-01-26T11:06:08.695Z,63.33
2023-01-26T11:07:08.656Z,62.36
2023-01-26T11:08:08.647Z,63.16
2023-01-26T11:09:08.629Z,64.61
2023-01-26T11:10:08.665Z,63.65
2023-01-26T11:11:08.624Z,60.10
2023-01-26T11:12:08.604Z,63.16
2023-01-26T11:13:08.625Z,62.68
2023-01-26T11:14:08.593Z,65.90
2023-01-26T11:15:08.723Z,63.49
2023-01-26T11:16:08.577Z,61.71
2023-01-26T11:17:08.577Z,64.78
2023-01-26T11:18:08.575Z,64.78
2023-01-26T11:19:08.553Z,65.58
2023-01-26T11:20:08.568Z,65.42
2023-01-26T11:21:08.580Z,66.71
2023-01-26T11:22:08.526Z,64.94
2023-01-26T11:23:08.521Z,63.65
2023-01-26T11:24:08.620Z,62.68
2023-01-26T11:25:08.665Z,61.07
2023-01-26T11:26:08.511Z,64.29
2023-01-26T11:27:08.492Z,66.39
2023-01-26T11:28:08.492Z,65.74
2023-01-26T11:29:08.488Z,65.26
2023-01-26T11:30:08.464Z,63.00
2023-01-26T11:31:08.611Z,63.81
2023-01-26T11:32:08.444Z,62.04
2023-01-26T11:33:08.434Z,63.33
2023-01-26T11:34:08.431Z,61.07
2023-01-26T11:35:08.425Z,61.07
2023-01-26T11:36:08.419Z,66.71
2023-01-26T11:37:08.407Z,63.00
2023-01-26T11:38:08.405Z,61.71
2023-01-26T11:39:08.387Z,63.81
2023-01-26T11:40:08.394Z,59.78
2023-01-26T11:41:08.409Z,64.45
2023-01-26T11:42:08.473Z,62.04
2023-01-26T11:43:08.361Z,62.84
2023-01-26T11:44:08.355Z,61.23
2023-01-26T11:45:08.379Z,61.07
2023-01-26T11:46:08.373Z,62.68
2023-01-26T11:47:08.324Z,63.16
2023-01-26T11:48:08.335Z,60.59
2023-01-26T11:49:08.305Z,63.97
2023-01-26T11:50:08.307Z,63.16
2023-01-26T11:51:08.304Z,64.13
2023-01-26T11:52:08.285Z,60.91
2023-01-26T11:53:08.270Z,61.55
2023-01-26T11:54:08.256Z,61.71
2023-01-26T11:55:09.156Z,63.81
2023-01-26T11:56:08.248Z,64.61
2023-01-26T11:57:08.240Z,64.94
2023-01-26T11:58:08.928Z,61.23
2023-01-26T11:59:08.399Z,60.10
2023-01-26T12:00:17.706Z,59.94
2023-01-26T12:01:10.213Z,61.23
2023-01-26T12:02:08.230Z,63.49
2023-01-26T12:03:08.241Z,65.58
2023-01-26T12:06:15.055Z,63.81
2023-01-26T12:07:15.048Z,64.13
2023-01-26T12:08:16.991Z,64.78
2023-01-26T12:09:16.132Z,65.58
2023-01-26T12:10:17.125Z,63.00
2023-01-26T12:11:18.283Z,61.23
2023-01-26T12:12:16.093Z,60.59
2023-01-26T12:13:17.002Z,64.45
2023-01-26T12:14:16.089Z,63.49
2023-01-26T12:15:16.079Z,62.84
2023-01-26T12:16:16.098Z,63.81
2023-01-26T12:17:18.622Z,64.45
2023-01-26T12:18:17.054Z,64.13
2023-01-26T12:19:16.078Z,62.04
2023-01-26T12:20:16.035Z,67.51
2023-01-26T12:21:16.033Z,68.64
2023-01-26T12:22:16.080Z,64.94
2023-01-26T12:23:16.012Z,65.74
2023-01-26T12:24:43.317Z,67.51
2023-01-26T12:25:20.029Z,63.49
2023-01-26T12:26:48.214Z,64.29
2023-01-26T12:27:15.991Z,63.49
2023-01-26T12:28:15.994Z,64.29
2023-01-26T12:29:15.990Z,62.52
2023-01-26T12:30:16.023Z,63.97
2023-01-26T12:31:16.128Z,63.81
2023-01-26T12:32:16.960Z,62.52
2023-01-26T12:33:15.975Z,61.07
2023-01-26T12:34:15.922Z,62.20
2023-01-26T12:35:16.921Z,63.33
2023-01-26T12:36:15.927Z,62.52
2023-01-26T12:37:16.456Z,65.58
2023-01-26T12:38:18.312Z,62.36
2023-01-26T12:39:16.921Z,59.78
2023-01-26T12:40:15.921Z,57.20
2023-01-26T12:41:15.880Z,63.97
2023-01-26T12:42:15.871Z,63.00
2023-01-26T12:43:16.882Z,60.26
2023-01-26T12:44:15.865Z,63.00
2023-01-26T12:45:18.393Z,62.52
2023-01-26T12:46:17.864Z,63.49
2023-01-26T12:47:17.599Z,60.59
2023-01-26T12:48:15.822Z,61.07
2023-01-26T12:49:15.828Z,63.81
2023-01-26T12:50:16.254Z,60.42
2023-01-26T12:51:16.840Z,62.84
2023-01-26T12:52:15.787Z,62.68
2023-01-26T12:53:15.787Z,63.33
2023-01-26T12:54:15.795Z,61.71
2023-01-26T12:55:16.455Z,59.62
2023-01-26T12:56:16.769Z,62.04
2023-01-26T12:57:17.545Z,63.65
2023-01-26T12:58:15.838Z,61.87
2023-01-26T12:59:47.001Z,62.20
2023-01-26T13:00:16.740Z,60.59
2023-01-26T13:01:15.835Z,65.58
2023-01-26T13:02:17.625Z,63.00